sensor_id;sensor_type;location;lat;lon;timestamp;temperature;humidity
9987;DHT22;5033;46.310;11.214;2023-05-21T00:01:04;14.30;99.90
9987;DHT22;5033;46.310;11.214;2023-05-21T00:03:31;14.30;99.90
9987;DHT22;5033;46.310;11.214;2023-05-21T00:05:58;14.30;99.90
9987;DHT22;5033;46.310;11.214;2023-05-21T00:08:29;14.30;99.90
9987;DHT22;5033;46.310;11.214;2023-05-21T00:10:56;14.30;99.90
9987;DHT22;5033;46.310;11.214;2023-05-21T00:13:23;14.30;99.90
9987;DHT22;5033;46.310;11.214;2023-05-21T00:15:50;14.30;99.90
9987;DHT22;5033;46.310;11.214;2023-05-21T00:18:17;14.20;99.90
9987;DHT22;5033;46.310;11.214;2023-05-21T00:20:44;14.20;99.90
9987;DHT22;5033;46.310;11.214;2023-05-21T00:23:12;14.20;99.90
9987;DHT22;5033;46.310;11.214;2023-05-21T00:25:44;14.20;99.90
9987;DHT22;5033;46.310;11.214;2023-05-21T00:28:12;14.20;99.90
9987;DHT22;5033;46.310;11.214;2023-05-21T00:30:39;14.20;99.90
9987;DHT22;5033;46.310;11.214;2023-05-21T00:33:07;14.20;99.90
9987;DHT22;5033;46.310;11.214;2023-05-21T00:35:38;14.10;99.90
9987;DHT22;5033;46.310;11.214;2023-05-21T00:38:05;14.10;99.90
9987;DHT22;5033;46.310;11.214;2023-05-21T00:40:33;14.10;99.90
9987;DHT22;5033;46.310;11.214;2023-05-21T00:43:02;14.10;99.90
9987;DHT22;5033;46.310;11.214;2023-05-21T00:45:29;14.10;99.90
9987;DHT22;5033;46.310;11.214;2023-05-21T00:47:56;14.10;99.90
9987;DHT22;5033;46.310;11.214;2023-05-21T00:50:23;14.10;99.90
9987;DHT22;5033;46.310;11.214;2023-05-21T00:52:50;14.10;99.90
9987;DHT22;5033;46.310;11.214;2023-05-21T00:55:17;14.10;99.90
9987;DHT22;5033;46.310;11.214;2023-05-21T00:57:45;14.10;99.90
9987;DHT22;5033;46.310;11.214;2023-05-21T01:00:14;14.10;99.90
9987;DHT22;5033;46.310;11.214;2023-05-21T01:02:41;14.10;99.90
9987;DHT22;5033;46.310;11.214;2023-05-21T01:05:09;14.00;99.90
9987;DHT22;5033;46.310;11.214;2023-05-21T01:07:38;14.00;99.90
9987;DHT22;5033;46.310;11.214;2023-05-21T01:10:08;14.00;99.90
9987;DHT22;5033;46.310;11.214;2023-05-21T01:12:37;14.10;99.90
9987;DHT22;5033;46.310;11.214;2023-05-21T01:15:06;14.10;99.90
9987;DHT22;5033;46.310;11.214;2023-05-21T01:17:34;14.00;99.90
9987;DHT22;5033;46.310;11.214;2023-05-21T01:20:03;14.00;99.90
9987;DHT22;5033;46.310;11.214;2023-05-21T01:22:35;14.00;99.90
9987;DHT22;5033;46.310;11.214;2023-05-21T01:25:06;14.00;99.90
9987;DHT22;5033;46.310;11.214;2023-05-21T01:27:33;14.00;99.90
9987;DHT22;5033;46.310;11.214;2023-05-21T01:30:00;13.90;99.90
9987;DHT22;5033;46.310;11.214;2023-05-21T01:32:32;13.90;99.90
9987;DHT22;5033;46.310;11.214;2023-05-21T01:35:04;13.90;99.90
9987;DHT22;5033;46.310;11.214;2023-05-21T01:37:35;13.90;99.90
9987;DHT22;5033;46.310;11.214;2023-05-21T01:40:09;13.90;99.90
9987;DHT22;5033;46.310;11.214;2023-05-21T01:42:38;13.80;99.90
9987;DHT22;5033;46.310;11.214;2023-05-21T01:45:09;13.80;99.90
9987;DHT22;5033;46.310;11.214;2023-05-21T01:47:36;13.80;99.90
9987;DHT22;5033;46.310;11.214;2023-05-21T01:50:05;13.80;99.90
9987;DHT22;5033;46.310;11.214;2023-05-21T01:52:32;13.80;99.90
9987;DHT22;5033;46.310;11.214;2023-05-21T01:54:59;13.80;99.90
9987;DHT22;5033;46.310;11.214;2023-05-21T01:57:27;13.80;99.90
9987;DHT22;5033;46.310;11.214;2023-05-21T01:59:55;13.80;99.90
9987;DHT22;5033;46.310;11.214;2023-05-21T02:02:23;13.80;99.90
9987;DHT22;5033;46.310;11.214;2023-05-21T02:04:50;13.80;99.90
9987;DHT22;5033;46.310;11.214;2023-05-21T02:07:17;13.70;99.90
9987;DHT22;5033;46.310;11.214;2023-05-21T02:09:44;13.70;99.90
9987;DHT22;5033;46.310;11.214;2023-05-21T02:12:11;13.70;99.90
9987;DHT22;5033;46.310;11.214;2023-05-21T02:14:39;13.70;99.90
9987;DHT22;5033;46.310;11.214;2023-05-21T02:17:07;13.70;99.90
9987;DHT22;5033;46.310;11.214;2023-05-21T02:19:33;13.80;99.90
9987;DHT22;5033;46.310;11.214;2023-05-21T02:22:01;13.70;99.90
9987;DHT22;5033;46.310;11.214;2023-05-21T02:24:28;13.70;99.90
9987;DHT22;5033;46.310;11.214;2023-05-21T02:26:55;13.70;99.90
9987;DHT22;5033;46.310;11.214;2023-05-21T02:29:23;13.70;99.90
9987;DHT22;5033;46.310;11.214;2023-05-21T02:31:51;13.70;99.90
9987;DHT22;5033;46.310;11.214;2023-05-21T02:34:18;13.60;99.90
9987;DHT22;5033;46.310;11.214;2023-05-21T02:36:45;13.60;99.90
9987;DHT22;5033;46.310;11.214;2023-05-21T02:39:16;13.60;99.90
9987;DHT22;5033;46.310;11.214;2023-05-21T02:41:44;13.60;99.90
9987;DHT22;5033;46.310;11.214;2023-05-21T02:44:11;13.60;99.90
9987;DHT22;5033;46.310;11.214;2023-05-21T02:46:38;13.60;99.90
9987;DHT22;5033;46.310;11.214;2023-05-21T02:49:06;13.60;99.90
9987;DHT22;5033;46.310;11.214;2023-05-21T02:51:33;13.60;99.90
9987;DHT22;5033;46.310;11.214;2023-05-21T02:54:00;13.60;99.90
9987;DHT22;5033;46.310;11.214;2023-05-21T02:56:27;13.60;99.90
9987;DHT22;5033;46.310;11.214;2023-05-21T02:58:54;13.60;99.90
9987;DHT22;5033;46.310;11.214;2023-05-21T03:01:21;13.60;99.90
9987;DHT22;5033;46.310;11.214;2023-05-21T03:03:48;13.60;99.90
9987;DHT22;5033;46.310;11.214;2023-05-21T03:06:16;13.60;99.90
9987;DHT22;5033;46.310;11.214;2023-05-21T03:08:43;13.60;99.90
9987;DHT22;5033;46.310;11.214;2023-05-21T03:11:10;13.60;99.90
9987;DHT22;5033;46.310;11.214;2023-05-21T03:13:39;13.50;99.90
9987;DHT22;5033;46.310;11.214;2023-05-21T03:16:07;13.50;99.90
9987;DHT22;5033;46.310;11.214;2023-05-21T03:18:34;13.50;99.90
9987;DHT22;5033;46.310;11.214;2023-05-21T03:21:00;13.50;99.90
9987;DHT22;5033;46.310;11.214;2023-05-21T03:23:30;13.50;99.90
9987;DHT22;5033;46.310;11.214;2023-05-21T03:25:57;13.50;99.90
9987;DHT22;5033;46.310;11.214;2023-05-21T03:28:24;13.50;99.90
9987;DHT22;5033;46.310;11.214;2023-05-21T03:30:51;13.50;99.90
9987;DHT22;5033;46.310;11.214;2023-05-21T03:33:18;13.40;99.90
9987;DHT22;5033;46.310;11.214;2023-05-21T03:35:45;13.40;99.90
9987;DHT22;5033;46.310;11.214;2023-05-21T03:38:12;13.40;99.90
9987;DHT22;5033;46.310;11.214;2023-05-21T03:40:40;13.30;99.90
9987;DHT22;5033;46.310;11.214;2023-05-21T03:43:07;13.30;99.90
9987;DHT22;5033;46.310;11.214;2023-05-21T03:45:34;13.30;99.90
9987;DHT22;5033;46.310;11.214;2023-05-21T03:48:01;13.40;99.90
9987;DHT22;5033;46.310;11.214;2023-05-21T03:50:28;13.40;99.90
9987;DHT22;5033;46.310;11.214;2023-05-21T03:52:55;13.40;99.90
9987;DHT22;5033;46.310;11.214;2023-05-21T03:55:22;13.40;99.90
9987;DHT22;5033;46.310;11.214;2023-05-21T03:57:50;13.50;99.90
9987;DHT22;5033;46.310;11.214;2023-05-21T04:00:18;13.50;99.90
9987;DHT22;5033;46.310;11.214;2023-05-21T04:02:45;13.50;99.90
9987;DHT22;5033;46.310;11.214;2023-05-21T04:05:12;13.50;99.90
9987;DHT22;5033;46.310;11.214;2023-05-21T04:07:39;13.60;99.90
9987;DHT22;5033;46.310;11.214;2023-05-21T04:10:07;13.60;99.90
9987;DHT22;5033;46.310;11.214;2023-05-21T04:12:34;13.60;99.90
9987;DHT22;5033;46.310;11.214;2023-05-21T04:15:04;13.60;99.90
9987;DHT22;5033;46.310;11.214;2023-05-21T04:17:31;13.60;99.90
9987;DHT22;5033;46.310;11.214;2023-05-21T04:19:59;13.60;99.90
9987;DHT22;5033;46.310;11.214;2023-05-21T04:22:26;13.60;99.90
9987;DHT22;5033;46.310;11.214;2023-05-21T04:24:52;13.60;99.90
9987;DHT22;5033;46.310;11.214;2023-05-21T04:27:20;13.60;99.90
9987;DHT22;5033;46.310;11.214;2023-05-21T04:29:48;13.60;99.90
9987;DHT22;5033;46.310;11.214;2023-05-21T04:32:16;13.60;99.90
9987;DHT22;5033;46.310;11.214;2023-05-21T04:34:43;13.70;99.90
9987;DHT22;5033;46.310;11.214;2023-05-21T04:37:10;13.70;99.90
9987;DHT22;5033;46.310;11.214;2023-05-21T04:39:37;13.70;99.90
9987;DHT22;5033;46.310;11.214;2023-05-21T04:42:05;13.70;99.90
9987;DHT22;5033;46.310;11.214;2023-05-21T04:44:35;13.70;99.90
9987;DHT22;5033;46.310;11.214;2023-05-21T04:47:03;13.70;99.90
9987;DHT22;5033;46.310;11.214;2023-05-21T04:49:31;13.70;99.90
9987;DHT22;5033;46.310;11.214;2023-05-21T04:51:59;13.70;99.90
9987;DHT22;5033;46.310;11.214;2023-05-21T04:54:26;13.60;99.90
9987;DHT22;5033;46.310;11.214;2023-05-21T04:56:53;13.60;99.90
9987;DHT22;5033;46.310;11.214;2023-05-21T04:59:20;13.60;99.90
9987;DHT22;5033;46.310;11.214;2023-05-21T05:01:48;13.60;99.90
9987;DHT22;5033;46.310;11.214;2023-05-21T05:04:15;13.60;99.90
9987;DHT22;5033;46.310;11.214;2023-05-21T05:06:43;13.60;99.90
9987;DHT22;5033;46.310;11.214;2023-05-21T05:09:10;13.70;99.90
9987;DHT22;5033;46.310;11.214;2023-05-21T05:11:37;13.70;99.90
9987;DHT22;5033;46.310;11.214;2023-05-21T05:14:04;13.70;99.90
9987;DHT22;5033;46.310;11.214;2023-05-21T05:16:31;13.70;99.90
9987;DHT22;5033;46.310;11.214;2023-05-21T05:18:58;13.70;99.90
9987;DHT22;5033;46.310;11.214;2023-05-21T05:21:25;13.70;99.90
9987;DHT22;5033;46.310;11.214;2023-05-21T05:23:53;13.70;99.90
9987;DHT22;5033;46.310;11.214;2023-05-21T05:26:21;13.70;99.90
9987;DHT22;5033;46.310;11.214;2023-05-21T05:28:48;13.70;99.90
9987;DHT22;5033;46.310;11.214;2023-05-21T05:31:15;13.70;99.90
9987;DHT22;5033;46.310;11.214;2023-05-21T05:33:42;13.70;99.90
9987;DHT22;5033;46.310;11.214;2023-05-21T05:36:09;13.80;99.90
9987;DHT22;5033;46.310;11.214;2023-05-21T05:38:36;13.80;99.90
9987;DHT22;5033;46.310;11.214;2023-05-21T05:41:04;13.80;99.90
9987;DHT22;5033;46.310;11.214;2023-05-21T05:43:31;13.80;99.90
9987;DHT22;5033;46.310;11.214;2023-05-21T05:45:58;13.80;99.90
9987;DHT22;5033;46.310;11.214;2023-05-21T05:48:25;13.90;99.90
9987;DHT22;5033;46.310;11.214;2023-05-21T05:50:52;13.90;99.90
9987;DHT22;5033;46.310;11.214;2023-05-21T05:53:21;13.90;99.90
9987;DHT22;5033;46.310;11.214;2023-05-21T05:55:48;13.90;99.90
9987;DHT22;5033;46.310;11.214;2023-05-21T05:58:17;13.90;99.90
9987;DHT22;5033;46.310;11.214;2023-05-21T06:00:44;13.90;99.90
9987;DHT22;5033;46.310;11.214;2023-05-21T06:03:11;13.90;99.90
9987;DHT22;5033;46.310;11.214;2023-05-21T06:05:38;13.90;99.90
9987;DHT22;5033;46.310;11.214;2023-05-21T06:08:05;13.90;99.90
9987;DHT22;5033;46.310;11.214;2023-05-21T06:10:32;13.90;99.90
9987;DHT22;5033;46.310;11.214;2023-05-21T06:12:59;13.90;99.90
9987;DHT22;5033;46.310;11.214;2023-05-21T06:15:27;13.90;99.90
9987;DHT22;5033;46.310;11.214;2023-05-21T06:17:54;13.90;99.90
9987;DHT22;5033;46.310;11.214;2023-05-21T06:20:21;13.90;99.90
9987;DHT22;5033;46.310;11.214;2023-05-21T06:22:48;14.00;99.90
9987;DHT22;5033;46.310;11.214;2023-05-21T06:25:15;14.00;99.90
9987;DHT22;5033;46.310;11.214;2023-05-21T06:27:42;14.00;99.90
9987;DHT22;5033;46.310;11.214;2023-05-21T06:30:10;14.00;99.90
9987;DHT22;5033;46.310;11.214;2023-05-21T06:32:38;14.00;99.90
9987;DHT22;5033;46.310;11.214;2023-05-21T06:35:05;14.00;99.90
9987;DHT22;5033;46.310;11.214;2023-05-21T06:37:32;14.10;99.90
9987;DHT22;5033;46.310;11.214;2023-05-21T06:39:59;14.20;99.90
9987;DHT22;5033;46.310;11.214;2023-05-21T06:42:26;14.30;99.90
9987;DHT22;5033;46.310;11.214;2023-05-21T06:44:53;14.40;99.90
9987;DHT22;5033;46.310;11.214;2023-05-21T06:47:20;14.50;99.90
9987;DHT22;5033;46.310;11.214;2023-05-21T06:49:48;14.60;99.90
9987;DHT22;5033;46.310;11.214;2023-05-21T06:52:15;14.70;99.90
9987;DHT22;5033;46.310;11.214;2023-05-21T06:54:42;14.70;99.90
9987;DHT22;5033;46.310;11.214;2023-05-21T06:57:09;14.70;99.90
9987;DHT22;5033;46.310;11.214;2023-05-21T06:59:36;14.80;99.90
9987;DHT22;5033;46.310;11.214;2023-05-21T07:02:03;14.80;99.90
9987;DHT22;5033;46.310;11.214;2023-05-21T07:04:30;14.80;99.90
9987;DHT22;5033;46.310;11.214;2023-05-21T07:07:01;14.90;99.90
9987;DHT22;5033;46.310;11.214;2023-05-21T07:09:29;14.90;99.90
9987;DHT22;5033;46.310;11.214;2023-05-21T07:11:56;15.00;99.90
9987;DHT22;5033;46.310;11.214;2023-05-21T07:14:25;15.00;99.90
9987;DHT22;5033;46.310;11.214;2023-05-21T07:16:52;15.00;99.90
9987;DHT22;5033;46.310;11.214;2023-05-21T07:19:19;15.00;99.90
9987;DHT22;5033;46.310;11.214;2023-05-21T07:21:46;14.90;99.90
9987;DHT22;5033;46.310;11.214;2023-05-21T07:24:14;14.90;99.90
9987;DHT22;5033;46.310;11.214;2023-05-21T07:26:41;14.90;99.90
9987;DHT22;5033;46.310;11.214;2023-05-21T07:29:08;14.90;99.90
9987;DHT22;5033;46.310;11.214;2023-05-21T07:31:35;15.00;99.90
9987;DHT22;5033;46.310;11.214;2023-05-21T07:34:02;15.10;99.90
9987;DHT22;5033;46.310;11.214;2023-05-21T07:36:28;15.30;99.90
9987;DHT22;5033;46.310;11.214;2023-05-21T07:38:58;15.30;99.90
9987;DHT22;5033;46.310;11.214;2023-05-21T07:41:26;15.40;99.90
9987;DHT22;5033;46.310;11.214;2023-05-21T07:43:53;15.40;99.90
9987;DHT22;5033;46.310;11.214;2023-05-21T07:46:21;15.40;99.90
9987;DHT22;5033;46.310;11.214;2023-05-21T07:48:48;15.60;99.90
9987;DHT22;5033;46.310;11.214;2023-05-21T07:51:15;15.80;99.90
9987;DHT22;5033;46.310;11.214;2023-05-21T07:53:42;15.90;99.90
9987;DHT22;5033;46.310;11.214;2023-05-21T07:56:09;16.00;99.90
9987;DHT22;5033;46.310;11.214;2023-05-21T07:58:38;16.10;99.90
9987;DHT22;5033;46.310;11.214;2023-05-21T08:01:05;16.20;99.90
9987;DHT22;5033;46.310;11.214;2023-05-21T08:03:32;16.30;99.90
9987;DHT22;5033;46.310;11.214;2023-05-21T08:05:58;16.40;99.90
9987;DHT22;5033;46.310;11.214;2023-05-21T08:08:26;16.50;99.90
9987;DHT22;5033;46.310;11.214;2023-05-21T08:10:53;16.40;99.90
9987;DHT22;5033;46.310;11.214;2023-05-21T08:13:20;16.20;99.90
9987;DHT22;5033;46.310;11.214;2023-05-21T08:15:49;16.30;99.90
9987;DHT22;5033;46.310;11.214;2023-05-21T08:18:16;16.50;99.90
9987;DHT22;5033;46.310;11.214;2023-05-21T08:20:43;16.70;99.90
9987;DHT22;5033;46.310;11.214;2023-05-21T08:23:10;16.80;99.90
9987;DHT22;5033;46.310;11.214;2023-05-21T08:25:40;16.80;99.90
9987;DHT22;5033;46.310;11.214;2023-05-21T08:28:07;17.00;99.90
9987;DHT22;5033;46.310;11.214;2023-05-21T08:30:34;17.20;99.90
9987;DHT22;5033;46.310;11.214;2023-05-21T08:33:02;17.40;99.90
9987;DHT22;5033;46.310;11.214;2023-05-21T08:35:29;17.50;99.90
9987;DHT22;5033;46.310;11.214;2023-05-21T08:37:56;17.80;99.90
9987;DHT22;5033;46.310;11.214;2023-05-21T08:40:24;17.80;99.90
9987;DHT22;5033;46.310;11.214;2023-05-21T08:42:51;17.70;99.90
9987;DHT22;5033;46.310;11.214;2023-05-21T08:45:20;17.60;99.90
9987;DHT22;5033;46.310;11.214;2023-05-21T08:47:53;17.50;99.90
9987;DHT22;5033;46.310;11.214;2023-05-21T08:50:25;17.40;99.90
9987;DHT22;5033;46.310;11.214;2023-05-21T08:52:52;17.40;99.90
9987;DHT22;5033;46.310;11.214;2023-05-21T08:55:21;17.40;99.90
9987;DHT22;5033;46.310;11.214;2023-05-21T08:57:48;17.40;99.90
9987;DHT22;5033;46.310;11.214;2023-05-21T09:00:16;17.40;99.90
9987;DHT22;5033;46.310;11.214;2023-05-21T09:02:45;17.50;99.90
9987;DHT22;5033;46.310;11.214;2023-05-21T09:05:14;17.50;99.90
9987;DHT22;5033;46.310;11.214;2023-05-21T09:07:46;17.70;99.90
9987;DHT22;5033;46.310;11.214;2023-05-21T09:10:17;17.90;99.90
9987;DHT22;5033;46.310;11.214;2023-05-21T09:12:48;18.00;99.90
9987;DHT22;5033;46.310;11.214;2023-05-21T09:15:16;18.10;99.90
9987;DHT22;5033;46.310;11.214;2023-05-21T09:17:45;18.30;99.90
9987;DHT22;5033;46.310;11.214;2023-05-21T09:20:14;18.80;99.90
9987;DHT22;5033;46.310;11.214;2023-05-21T09:22:43;19.50;99.90
9987;DHT22;5033;46.310;11.214;2023-05-21T09:25:12;20.30;99.90
9987;DHT22;5033;46.310;11.214;2023-05-21T09:27:39;21.00;99.90
9987;DHT22;5033;46.310;11.214;2023-05-21T09:30:09;21.20;99.90
9987;DHT22;5033;46.310;11.214;2023-05-21T09:32:36;21.20;99.90
9987;DHT22;5033;46.310;11.214;2023-05-21T09:35:08;21.10;99.90
9987;DHT22;5033;46.310;11.214;2023-05-21T09:37:38;20.90;99.90
9987;DHT22;5033;46.310;11.214;2023-05-21T09:40:15;21.00;99.90
9987;DHT22;5033;46.310;11.214;2023-05-21T09:42:44;21.20;99.90
9987;DHT22;5033;46.310;11.214;2023-05-21T09:45:11;21.30;99.90
9987;DHT22;5033;46.310;11.214;2023-05-21T09:47:42;21.50;99.90
9987;DHT22;5033;46.310;11.214;2023-05-21T09:50:10;21.30;99.90
9987;DHT22;5033;46.310;11.214;2023-05-21T09:52:37;21.20;99.90
9987;DHT22;5033;46.310;11.214;2023-05-21T09:55:05;21.20;99.90
9987;DHT22;5033;46.310;11.214;2023-05-21T09:57:39;21.20;99.90
9987;DHT22;5033;46.310;11.214;2023-05-21T10:00:08;21.30;99.90
9987;DHT22;5033;46.310;11.214;2023-05-21T10:02:41;21.40;99.90
9987;DHT22;5033;46.310;11.214;2023-05-21T10:05:11;21.60;99.90
9987;DHT22;5033;46.310;11.214;2023-05-21T10:07:41;21.20;99.90
9987;DHT22;5033;46.310;11.214;2023-05-21T10:10:11;21.30;99.90
9987;DHT22;5033;46.310;11.214;2023-05-21T10:12:41;21.50;99.90
9987;DHT22;5033;46.310;11.214;2023-05-21T10:15:13;21.60;99.90
9987;DHT22;5033;46.310;11.214;2023-05-21T10:17:41;21.60;99.90
9987;DHT22;5033;46.310;11.214;2023-05-21T10:20:10;21.30;99.90
9987;DHT22;5033;46.310;11.214;2023-05-21T10:22:37;21.40;99.90
9987;DHT22;5033;46.310;11.214;2023-05-21T10:25:06;21.70;99.90
9987;DHT22;5033;46.310;11.214;2023-05-21T10:27:34;22.10;99.90
9987;DHT22;5033;46.310;11.214;2023-05-21T10:30:04;22.30;99.90
9987;DHT22;5033;46.310;11.214;2023-05-21T10:32:34;22.20;99.90
9987;DHT22;5033;46.310;11.214;2023-05-21T10:35:00;22.10;99.90
9987;DHT22;5033;46.310;11.214;2023-05-21T10:37:28;21.80;99.90
9987;DHT22;5033;46.310;11.214;2023-05-21T10:39:55;21.30;99.90
9987;DHT22;5033;46.310;11.214;2023-05-21T10:42:49;21.20;99.90
9987;DHT22;5033;46.310;11.214;2023-05-21T10:45:31;21.60;99.90
9987;DHT22;5033;46.310;11.214;2023-05-21T10:48:13;22.00;99.90
9987;DHT22;5033;46.310;11.214;2023-05-21T10:50:58;22.00;99.90
9987;DHT22;5033;46.310;11.214;2023-05-21T10:53:40;22.30;99.90
9987;DHT22;5033;46.310;11.214;2023-05-21T10:56:15;22.20;99.90
9987;DHT22;5033;46.310;11.214;2023-05-21T10:59:00;22.00;99.90
9987;DHT22;5033;46.310;11.214;2023-05-21T11:01:32;22.30;99.90
9987;DHT22;5033;46.310;11.214;2023-05-21T11:04:00;22.70;99.90
9987;DHT22;5033;46.310;11.214;2023-05-21T11:06:27;23.10;99.90
9987;DHT22;5033;46.310;11.214;2023-05-21T11:08:54;23.30;99.90
9987;DHT22;5033;46.310;11.214;2023-05-21T11:11:41;23.50;99.90
9987;DHT22;5033;46.310;11.214;2023-05-21T11:14:26;23.40;99.90
9987;DHT22;5033;46.310;11.214;2023-05-21T11:16:54;23.50;99.90
9987;DHT22;5033;46.310;11.214;2023-05-21T11:19:21;23.60;99.90
9987;DHT22;5033;46.310;11.214;2023-05-21T11:21:57;23.70;99.90
9987;DHT22;5033;46.310;11.214;2023-05-21T11:24:24;24.00;99.90
9987;DHT22;5033;46.310;11.214;2023-05-21T11:27:00;23.90;99.90
9987;DHT22;5033;46.310;11.214;2023-05-21T11:29:46;24.10;99.90
9987;DHT22;5033;46.310;11.214;2023-05-21T11:32:15;24.10;99.90
9987;DHT22;5033;46.310;11.214;2023-05-21T11:34:46;24.00;99.90
9987;DHT22;5033;46.310;11.214;2023-05-21T11:37:37;24.00;99.90
9987;DHT22;5033;46.310;11.214;2023-05-21T11:40:24;24.20;99.90
9987;DHT22;5033;46.310;11.214;2023-05-21T11:42:53;24.30;99.90
9987;DHT22;5033;46.310;11.214;2023-05-21T11:45:21;24.30;99.90
9987;DHT22;5033;46.310;11.214;2023-05-21T11:47:50;24.30;99.90
9987;DHT22;5033;46.310;11.214;2023-05-21T11:50:18;24.50;99.90
9987;DHT22;5033;46.310;11.214;2023-05-21T11:52:45;24.50;99.90
9987;DHT22;5033;46.310;11.214;2023-05-21T11:55:12;24.60;99.90
9987;DHT22;5033;46.310;11.214;2023-05-21T11:57:41;24.70;99.90
9987;DHT22;5033;46.310;11.214;2023-05-21T12:00:13;24.90;99.90
9987;DHT22;5033;46.310;11.214;2023-05-21T12:02:45;24.90;99.90
9987;DHT22;5033;46.310;11.214;2023-05-21T12:05:13;24.90;99.90
9987;DHT22;5033;46.310;11.214;2023-05-21T12:07:40;25.10;99.90
9987;DHT22;5033;46.310;11.214;2023-05-21T12:10:08;25.40;99.90
9987;DHT22;5033;46.310;11.214;2023-05-21T12:12:35;25.60;99.90
9987;DHT22;5033;46.310;11.214;2023-05-21T12:15:03;25.70;99.90
9987;DHT22;5033;46.310;11.214;2023-05-21T12:17:30;25.60;99.90
9987;DHT22;5033;46.310;11.214;2023-05-21T12:19:57;25.60;99.90
9987;DHT22;5033;46.310;11.214;2023-05-21T12:22:27;25.80;99.90
9987;DHT22;5033;46.310;11.214;2023-05-21T12:24:54;25.90;99.90
9987;DHT22;5033;46.310;11.214;2023-05-21T12:27:22;26.00;99.90
9987;DHT22;5033;46.310;11.214;2023-05-21T12:29:50;26.00;99.90
9987;DHT22;5033;46.310;11.214;2023-05-21T12:32:18;26.00;99.90
9987;DHT22;5033;46.310;11.214;2023-05-21T12:34:47;25.90;99.90
9987;DHT22;5033;46.310;11.214;2023-05-21T12:37:15;25.80;99.90
9987;DHT22;5033;46.310;11.214;2023-05-21T12:39:45;25.60;99.90
9987;DHT22;5033;46.310;11.214;2023-05-21T12:42:13;25.70;99.90
9987;DHT22;5033;46.310;11.214;2023-05-21T12:44:43;25.80;99.90
9987;DHT22;5033;46.310;11.214;2023-05-21T12:47:11;25.90;99.90
9987;DHT22;5033;46.310;11.214;2023-05-21T12:49:39;26.20;99.90
9987;DHT22;5033;46.310;11.214;2023-05-21T12:52:09;26.50;99.90
9987;DHT22;5033;46.310;11.214;2023-05-21T12:54:37;26.70;99.90
9987;DHT22;5033;46.310;11.214;2023-05-21T12:57:07;26.90;99.90
9987;DHT22;5033;46.310;11.214;2023-05-21T12:59:47;27.00;99.90
9987;DHT22;5033;46.310;11.214;2023-05-21T13:02:17;27.30;99.90
9987;DHT22;5033;46.310;11.214;2023-05-21T13:04:44;27.40;99.90
9987;DHT22;5033;46.310;11.214;2023-05-21T13:07:12;27.10;99.90
9987;DHT22;5033;46.310;11.214;2023-05-21T13:09:38;26.90;99.90
9987;DHT22;5033;46.310;11.214;2023-05-21T13:12:07;26.60;99.90
9987;DHT22;5033;46.310;11.214;2023-05-21T13:14:34;26.60;99.90
9987;DHT22;5033;46.310;11.214;2023-05-21T13:17:01;26.50;99.90
9987;DHT22;5033;46.310;11.214;2023-05-21T13:19:28;26.60;99.90
9987;DHT22;5033;46.310;11.214;2023-05-21T13:21:55;26.30;99.90
9987;DHT22;5033;46.310;11.214;2023-05-21T13:24:22;26.00;99.90
9987;DHT22;5033;46.310;11.214;2023-05-21T13:26:49;25.80;99.90
9987;DHT22;5033;46.310;11.214;2023-05-21T13:29:17;25.70;99.90
9987;DHT22;5033;46.310;11.214;2023-05-21T13:31:44;25.50;99.90
9987;DHT22;5033;46.310;11.214;2023-05-21T13:34:11;25.30;99.90
9987;DHT22;5033;46.310;11.214;2023-05-21T13:36:38;25.20;99.90
9987;DHT22;5033;46.310;11.214;2023-05-21T13:39:06;25.10;99.90
9987;DHT22;5033;46.310;11.214;2023-05-21T13:41:33;25.10;99.90
9987;DHT22;5033;46.310;11.214;2023-05-21T13:44:00;25.00;99.90
9987;DHT22;5033;46.310;11.214;2023-05-21T13:46:28;25.00;99.90
9987;DHT22;5033;46.310;11.214;2023-05-21T13:48:55;25.00;99.90
9987;DHT22;5033;46.310;11.214;2023-05-21T13:51:22;25.00;99.90
9987;DHT22;5033;46.310;11.214;2023-05-21T13:53:49;24.90;99.90
9987;DHT22;5033;46.310;11.214;2023-05-21T13:56:16;24.80;99.90
9987;DHT22;5033;46.310;11.214;2023-05-21T13:58:42;24.70;99.90
9987;DHT22;5033;46.310;11.214;2023-05-21T14:01:10;24.70;99.90
9987;DHT22;5033;46.310;11.214;2023-05-21T14:03:38;24.70;99.90
9987;DHT22;5033;46.310;11.214;2023-05-21T14:06:05;25.00;99.90
9987;DHT22;5033;46.310;11.214;2023-05-21T14:08:33;25.30;99.90
9987;DHT22;5033;46.310;11.214;2023-05-21T14:11:00;25.80;99.90
9987;DHT22;5033;46.310;11.214;2023-05-21T14:13:27;26.20;99.90
9987;DHT22;5033;46.310;11.214;2023-05-21T14:15:54;26.50;99.90
9987;DHT22;5033;46.310;11.214;2023-05-21T14:18:21;26.60;99.90
9987;DHT22;5033;46.310;11.214;2023-05-21T14:20:49;26.70;99.90
9987;DHT22;5033;46.310;11.214;2023-05-21T14:23:16;26.60;99.90
9987;DHT22;5033;46.310;11.214;2023-05-21T14:25:43;26.70;99.90
9987;DHT22;5033;46.310;11.214;2023-05-21T14:28:10;26.70;99.90
9987;DHT22;5033;46.310;11.214;2023-05-21T14:30:37;26.70;99.90
9987;DHT22;5033;46.310;11.214;2023-05-21T14:33:04;26.90;99.90
9987;DHT22;5033;46.310;11.214;2023-05-21T14:35:31;27.00;99.90
9987;DHT22;5033;46.310;11.214;2023-05-21T14:37:59;27.10;99.90
9987;DHT22;5033;46.310;11.214;2023-05-21T14:40:26;27.00;99.90
9987;DHT22;5033;46.310;11.214;2023-05-21T14:42:55;26.80;99.90
9987;DHT22;5033;46.310;11.214;2023-05-21T14:45:22;26.70;99.90
9987;DHT22;5033;46.310;11.214;2023-05-21T14:47:49;26.70;99.90
9987;DHT22;5033;46.310;11.214;2023-05-21T14:50:17;26.50;99.90
9987;DHT22;5033;46.310;11.214;2023-05-21T14:52:44;26.20;99.90
9987;DHT22;5033;46.310;11.214;2023-05-21T14:55:12;26.20;99.90
9987;DHT22;5033;46.310;11.214;2023-05-21T14:57:41;26.10;99.90
9987;DHT22;5033;46.310;11.214;2023-05-21T15:00:08;26.00;99.90
9987;DHT22;5033;46.310;11.214;2023-05-21T15:02:36;25.80;99.90
9987;DHT22;5033;46.310;11.214;2023-05-21T15:05:03;25.70;99.90
9987;DHT22;5033;46.310;11.214;2023-05-21T15:07:30;25.80;99.90
9987;DHT22;5033;46.310;11.214;2023-05-21T15:09:57;26.00;99.90
9987;DHT22;5033;46.310;11.214;2023-05-21T15:12:25;26.00;99.90
9987;DHT22;5033;46.310;11.214;2023-05-21T15:14:52;26.00;99.90
9987;DHT22;5033;46.310;11.214;2023-05-21T15:17:19;26.00;99.90
9987;DHT22;5033;46.310;11.214;2023-05-21T15:19:46;25.90;99.90
9987;DHT22;5033;46.310;11.214;2023-05-21T15:22:13;25.90;99.90
9987;DHT22;5033;46.310;11.214;2023-05-21T15:24:40;25.90;99.90
9987;DHT22;5033;46.310;11.214;2023-05-21T15:27:08;25.90;99.90
9987;DHT22;5033;46.310;11.214;2023-05-21T15:29:37;25.70;99.90
9987;DHT22;5033;46.310;11.214;2023-05-21T15:32:04;25.60;99.90
9987;DHT22;5033;46.310;11.214;2023-05-21T15:34:31;25.50;99.90
9987;DHT22;5033;46.310;11.214;2023-05-21T15:36:58;25.40;99.90
9987;DHT22;5033;46.310;11.214;2023-05-21T15:39:25;25.30;99.90
9987;DHT22;5033;46.310;11.214;2023-05-21T15:41:53;25.20;99.90
9987;DHT22;5033;46.310;11.214;2023-05-21T15:44:20;24.90;99.90
9987;DHT22;5033;46.310;11.214;2023-05-21T15:46:48;24.80;99.90
9987;DHT22;5033;46.310;11.214;2023-05-21T15:49:16;24.70;99.90
9987;DHT22;5033;46.310;11.214;2023-05-21T15:51:43;24.60;99.90